sensor_id;sensor_type;location;lat;lon;timestamp;pressure;altitude;pressure_sealevel;temperature;humidity
12969;BME280;6549;53.128;8.182;2022-09-29T00:01:25;99730.47;;;4.99;100.00
12969;BME280;6549;53.128;8.182;2022-09-29T00:04:26;99731.25;;;5.00;100.00
12969;BME280;6549;53.128;8.182;2022-09-29T00:07:27;99726.53;;;4.96;100.00
12969;BME280;6549;53.128;8.182;2022-09-29T00:10:28;99728.06;;;4.94;100.00
12969;BME280;6549;53.128;8.182;2022-09-29T00:13:28;99734.28;;;4.91;100.00
12969;BME280;6549;53.128;8.182;2022-09-29T00:16:29;99725.31;;;4.90;100.00
12969;BME280;6549;53.128;8.182;2022-09-29T00:19:29;99731.91;;;4.89;100.00
12969;BME280;6549;53.128;8.182;2022-09-29T00:22:29;99733.41;;;4.87;100.00
12969;BME280;6549;53.128;8.182;2022-09-29T00:25:30;99723.56;;;4.75;100.00
12969;BME280;6549;53.128;8.182;2022-09-29T00:28:31;99722.31;;;4.69;100.00
12969;BME280;6549;53.128;8.182;2022-09-29T00:31:32;99727.72;;;4.66;100.00
12969;BME280;6549;53.128;8.182;2022-09-29T00:34:33;99721.47;;;4.62;100.00
12969;BME280;6549;53.128;8.182;2022-09-29T00:37:34;99726.53;;;4.63;100.00
12969;BME280;6549;53.128;8.182;2022-09-29T00:40:34;99726.91;;;4.62;100.00
12969;BME280;6549;53.128;8.182;2022-09-29T00:50:02;99733.72;;;4.48;100.00
12969;BME280;6549;53.128;8.182;2022-09-29T00:53:03;99729.81;;;4.46;100.00
12969;BME280;6549;53.128;8.182;2022-09-29T00:56:13;99731.75;;;4.45;100.00
12969;BME280;6549;53.128;8.182;2022-09-29T00:59:22;99725.09;;;4.43;100.00
12969;BME280;6549;53.128;8.182;2022-09-29T01:02:24;99728.06;;;4.31;100.00
12969;BME280;6549;53.128;8.182;2022-09-29T01:05:30;99726.41;;;4.23;100.00
12969;BME280;6549;53.128;8.182;2022-09-29T01:08:51;99728.69;;;4.21;100.00
12969;BME280;6549;53.128;8.182;2022-09-29T01:11:56;99730.25;;;4.22;100.00
12969;BME280;6549;53.128;8.182;2022-09-29T01:14:58;99731.00;;;4.19;100.00
12969;BME280;6549;53.128;8.182;2022-09-29T01:17:59;99729.75;;;4.13;100.00
12969;BME280;6549;53.128;8.182;2022-09-29T01:21:12;99733.22;;;4.10;100.00
12969;BME280;6549;53.128;8.182;2022-09-29T01:31:34;99732.06;;;4.11;100.00
12969;BME280;6549;53.128;8.182;2022-09-29T01:38:04;99740.94;;;4.07;100.00
12969;BME280;6549;53.128;8.182;2022-09-29T01:41:19;99728.81;;;4.01;100.00
12969;BME280;6549;53.128;8.182;2022-09-29T01:47:48;99740.00;;;3.96;100.00
12969;BME280;6549;53.128;8.182;2022-09-29T01:50:59;99731.84;;;3.96;100.00
12969;BME280;6549;53.128;8.182;2022-09-29T01:54:04;99732.94;;;3.92;100.00
12969;BME280;6549;53.128;8.182;2022-09-29T01:57:11;99727.81;;;3.87;100.00
12969;BME280;6549;53.128;8.182;2022-09-29T02:00:16;99733.56;;;3.82;100.00
12969;BME280;6549;53.128;8.182;2022-09-29T02:03:32;99731.53;;;3.75;100.00
12969;BME280;6549;53.128;8.182;2022-09-29T02:06:37;99737.81;;;3.79;100.00
12969;BME280;6549;53.128;8.182;2022-09-29T02:09:44;99735.38;;;3.74;100.00
12969;BME280;6549;53.128;8.182;2022-09-29T02:12:47;99732.22;;;3.72;100.00
12969;BME280;6549;53.128;8.182;2022-09-29T02:15:53;99736.81;;;3.68;100.00
12969;BME280;6549;53.128;8.182;2022-09-29T02:19:01;99735.50;;;3.58;100.00
12969;BME280;6549;53.128;8.182;2022-09-29T02:22:02;99736.28;;;3.59;100.00
12969;BME280;6549;53.128;8.182;2022-09-29T02:25:02;99739.44;;;3.61;100.00
12969;BME280;6549;53.128;8.182;2022-09-29T02:28:03;99735.50;;;3.58;100.00
12969;BME280;6549;53.128;8.182;2022-09-29T02:31:05;99733.53;;;3.55;100.00
12969;BME280;6549;53.128;8.182;2022-09-29T02:34:07;99736.69;;;3.57;100.00
12969;BME280;6549;53.128;8.182;2022-09-29T02:40:48;99736.63;;;3.54;100.00
12969;BME280;6549;53.128;8.182;2022-09-29T02:53:41;99748.06;;;3.44;100.00
12969;BME280;6549;53.128;8.182;2022-09-29T02:56:53;99758.38;;;3.35;100.00
12969;BME280;6549;53.128;8.182;2022-09-29T03:00:06;99755.72;;;3.38;100.00
12969;BME280;6549;53.128;8.182;2022-09-29T03:03:09;99757.66;;;3.38;100.00
12969;BME280;6549;53.128;8.182;2022-09-29T03:06:10;99757.66;;;3.38;100.00
12969;BME280;6549;53.128;8.182;2022-09-29T03:09:11;99756.16;;;3.40;100.00
12969;BME280;6549;53.128;8.182;2022-09-29T03:12:11;99761.59;;;3.40;100.00
12969;BME280;6549;53.128;8.182;2022-09-29T03:15:11;99770.09;;;3.39;100.00
12969;BME280;6549;53.128;8.182;2022-09-29T03:18:12;99771.69;;;3.40;100.00
12969;BME280;6549;53.128;8.182;2022-09-29T03:21:12;99765.94;;;3.45;100.00
12969;BME280;6549;53.128;8.182;2022-09-29T03:24:12;99766.50;;;3.54;100.00
12969;BME280;6549;53.128;8.182;2022-09-29T03:27:13;99762.66;;;3.58;100.00
12969;BME280;6549;53.128;8.182;2022-09-29T03:30:13;99753.44;;;3.63;100.00
12969;BME280;6549;53.128;8.182;2022-09-29T03:33:14;99761.28;;;3.68;100.00
12969;BME280;6549;53.128;8.182;2022-09-29T03:36:14;99757.06;;;3.71;100.00
12969;BME280;6549;53.128;8.182;2022-09-29T03:39:14;99763.66;;;3.70;100.00
12969;BME280;6549;53.128;8.182;2022-09-29T03:42:14;99766.31;;;3.66;100.00
12969;BME280;6549;53.128;8.182;2022-09-29T03:45:15;99771.69;;;3.63;100.00
12969;BME280;6549;53.128;8.182;2022-09-29T03:48:16;99773.63;;;3.62;100.00
12969;BME280;6549;53.128;8.182;2022-09-29T03:51:17;99772.03;;;3.61;100.00
12969;BME280;6549;53.128;8.182;2022-09-29T03:54:17;99771.94;;;3.54;100.00
12969;BME280;6549;53.128;8.182;2022-09-29T03:57:17;99768.03;;;3.55;100.00
12969;BME280;6549;53.128;8.182;2022-09-29T04:00:18;99770.41;;;3.56;100.00
12969;BME280;6549;53.128;8.182;2022-09-29T04:03:19;99775.50;;;3.58;100.00
12969;BME280;6549;53.128;8.182;2022-09-29T04:06:19;99775.06;;;3.56;100.00
12969;BME280;6549;53.128;8.182;2022-09-29T04:09:19;99780.66;;;3.44;100.00
12969;BME280;6549;53.128;8.182;2022-09-29T04:12:20;99786.03;;;3.40;100.00
12969;BME280;6549;53.128;8.182;2022-09-29T04:15:20;99795.13;;;3.29;100.00
12969;BME280;6549;53.128;8.182;2022-09-29T04:18:20;99793.91;;;3.26;100.00
12969;BME280;6549;53.128;8.182;2022-09-29T04:21:21;99793.84;;;3.23;100.00
12969;BME280;6549;53.128;8.182;2022-09-29T04:24:21;99793.84;;;3.23;100.00
12969;BME280;6549;53.128;8.182;2022-09-29T04:27:21;99794.41;;;3.32;100.00
12969;BME280;6549;53.128;8.182;2022-09-29T04:30:21;99796.47;;;3.38;100.00
12969;BME280;6549;53.128;8.182;2022-09-29T04:33:22;99788.03;;;3.43;100.00
12969;BME280;6549;53.128;8.182;2022-09-29T04:36:22;99785.72;;;3.45;100.00
12969;BME280;6549;53.128;8.182;2022-09-29T04:39:23;99787.25;;;3.43;100.00
12969;BME280;6549;53.128;8.182;2022-09-29T04:42:23;99784.09;;;3.41;100.00
12969;BME280;6549;53.128;8.182;2022-09-29T04:45:23;99777.94;;;3.44;100.00
12969;BME280;6549;53.128;8.182;2022-09-29T04:48:24;99788.44;;;3.45;100.00
12969;BME280;6549;53.128;8.182;2022-09-29T04:51:24;99786.09;;;3.44;100.00
12969;BME280;6549;53.128;8.182;2022-09-29T04:54:29;99793.41;;;3.40;100.00
12969;BME280;6549;53.128;8.182;2022-09-29T04:57:29;99792.13;;;3.34;100.00
12969;BME280;6549;53.128;8.182;2022-09-29T05:00:29;99788.91;;;3.28;100.00
12969;BME280;6549;53.128;8.182;2022-09-29T05:03:31;99786.78;;;3.18;100.00
12969;BME280;6549;53.128;8.182;2022-09-29T05:06:32;99792.13;;;3.14;100.00
12969;BME280;6549;53.128;8.182;2022-09-29T05:09:33;99792.91;;;3.15;100.00
12969;BME280;6549;53.128;8.182;2022-09-29T05:12:35;99806.13;;;3.16;100.00
12969;BME280;6549;53.128;8.182;2022-09-29T05:15:36;99793.19;;;3.10;100.00
12969;BME280;6549;53.128;8.182;2022-09-29T05:18:36;99804.94;;;3.14;100.00
12969;BME280;6549;53.128;8.182;2022-09-29T05:21:36;99800.66;;;3.13;100.00
12969;BME280;6549;53.128;8.182;2022-09-29T05:24:37;99797.94;;;3.13;100.00
12969;BME280;6549;53.128;8.182;2022-09-29T05:27:37;99804.28;;;3.21;100.00
12969;BME280;6549;53.128;8.182;2022-09-29T05:30:37;99812.47;;;3.24;100.00
12969;BME280;6549;53.128;8.182;2022-09-29T05:33:38;99812.53;;;3.28;100.00
12969;BME280;6549;53.128;8.182;2022-09-29T05:36:39;99817.34;;;3.34;100.00
12969;BME280;6549;53.128;8.182;2022-09-29T05:39:39;99816.66;;;3.41;100.00
12969;BME280;6549;53.128;8.182;2022-09-29T05:42:41;99826.09;;;3.47;100.00
12969;BME280;6549;53.128;8.182;2022-09-29T05:45:41;99822.38;;;3.55;100.00
12969;BME280;6549;53.128;8.182;2022-09-29T05:48:42;99824.78;;;3.60;100.00
12969;BME280;6549;53.128;8.182;2022-09-29T05:51:45;99826.38;;;3.61;100.00
12969;BME280;6549;53.128;8.182;2022-09-29T05:54:45;99839.66;;;3.66;100.00
12969;BME280;6549;53.128;8.182;2022-09-29T05:57:50;99832.00;;;3.72;100.00
12969;BME280;6549;53.128;8.182;2022-09-29T06:00:50;99829.69;;;3.74;100.00
12969;BME280;6549;53.128;8.182;2022-09-29T06:03:54;99831.31;;;3.78;100.00
12969;BME280;6549;53.128;8.182;2022-09-29T06:06:55;99825.94;;;3.82;100.00
12969;BME280;6549;53.128;8.182;2022-09-29T06:09:56;99831.09;;;3.87;100.00
12969;BME280;6549;53.128;8.182;2022-09-29T06:12:57;99842.00;;;3.90;100.00
12969;BME280;6549;53.128;8.182;2022-09-29T06:15:58;99847.44;;;3.90;100.00
12969;BME280;6549;53.128;8.182;2022-09-29T06:18:59;99845.94;;;3.93;100.00
12969;BME280;6549;53.128;8.182;2022-09-29T06:22:00;99848.44;;;4.01;100.00
12969;BME280;6549;53.128;8.182;2022-09-29T06:25:01;99841.22;;;4.13;100.00
12969;BME280;6549;53.128;8.182;2022-09-29T06:28:01;99849.91;;;4.22;100.00
12969;BME280;6549;53.128;8.182;2022-09-29T06:31:06;99853.50;;;4.29;100.00
12969;BME280;6549;53.128;8.182;2022-09-29T06:34:08;99863.44;;;4.41;100.00
12969;BME280;6549;53.128;8.182;2022-09-29T06:37:08;99852.56;;;4.41;100.00
12969;BME280;6549;53.128;8.182;2022-09-29T06:40:27;99858.41;;;4.43;100.00
12969;BME280;6549;53.128;8.182;2022-09-29T06:43:28;99858.03;;;4.44;100.00
12969;BME280;6549;53.128;8.182;2022-09-29T06:46:28;99868.34;;;4.58;100.00
12969;BME280;6549;53.128;8.182;2022-09-29T06:49:28;99864.34;;;4.78;100.00
12969;BME280;6549;53.128;8.182;2022-09-29T06:52:29;99869.16;;;4.88;100.00
12969;BME280;6549;53.128;8.182;2022-09-29T06:55:29;99862.75;;;5.04;100.00
12969;BME280;6549;53.128;8.182;2022-09-29T06:58:30;99864.38;;;5.08;100.00
12969;BME280;6549;53.128;8.182;2022-09-29T07:01:30;99860.22;;;5.18;100.00
12969;BME280;6549;53.128;8.182;2022-09-29T07:04:30;99875.16;;;5.31;100.00
12969;BME280;6549;53.128;8.182;2022-09-29T07:07:31;99874.50;;;5.41;100.00
12969;BME280;6549;53.128;8.182;2022-09-29T07:10:31;99874.25;;;5.53;100.00
12969;BME280;6549;53.128;8.182;2022-09-29T07:13:32;99873.25;;;5.68;100.00
12969;BME280;6549;53.128;8.182;2022-09-29T07:16:32;99874.56;;;5.85;100.00
12969;BME280;6549;53.128;8.182;2022-09-29T07:19:33;99882.13;;;5.99;100.00
12969;BME280;6549;53.128;8.182;2022-09-29T07:22:33;99880.28;;;6.06;100.00
12969;BME280;6549;53.128;8.182;2022-09-29T07:25:34;99887.31;;;6.11;100.00
12969;BME280;6549;53.128;8.182;2022-09-29T07:28:34;99888.16;;;6.15;100.00
12969;BME280;6549;53.128;8.182;2022-09-29T07:31:35;99887.41;;;6.21;100.00
12969;BME280;6549;53.128;8.182;2022-09-29T07:34:35;99894.50;;;6.33;100.00
12969;BME280;6549;53.128;8.182;2022-09-29T07:37:36;99893.91;;;6.50;100.00
12969;BME280;6549;53.128;8.182;2022-09-29T07:40:36;99902.59;;;6.66;100.00
12969;BME280;6549;53.128;8.182;2022-09-29T07:43:37;99908.84;;;6.70;100.00
12969;BME280;6549;53.128;8.182;2022-09-29T07:46:38;99898.66;;;6.64;100.00
12969;BME280;6549;53.128;8.182;2022-09-29T07:49:41;99907.28;;;6.73;100.00
12969;BME280;6549;53.128;8.182;2022-09-29T07:52:42;99915.16;;;6.82;100.00
12969;BME280;6549;53.128;8.182;2022-09-29T07:55:42;99923.34;;;6.82;100.00
12969;BME280;6549;53.128;8.182;2022-09-29T07:58:44;99924.53;;;6.84;100.00
12969;BME280;6549;53.128;8.182;2022-09-29T08:01:44;99932.38;;;6.86;100.00
12969;BME280;6549;53.128;8.182;2022-09-29T08:04:45;99931.53;;;6.82;100.00
12969;BME280;6549;53.128;8.182;2022-09-29T08:07:50;99929.25;;;6.91;100.00
12969;BME280;6549;53.128;8.182;2022-09-29T08:10:50;99933.22;;;6.97;100.00
12969;BME280;6549;53.128;8.182;2022-09-29T08:13:51;99940.72;;;7.10;100.00
12969;BME280;6549;53.128;8.182;2022-09-29T08:16:55;99942.72;;;7.20;100.00
12969;BME280;6549;53.128;8.182;2022-09-29T08:19:55;99949.00;;;7.28;100.00
12969;BME280;6549;53.128;8.182;2022-09-29T08:22:57;99951.44;;;7.47;100.00
12969;BME280;6549;53.128;8.182;2022-09-29T08:26:09;99953.03;;;7.55;100.00
12969;BME280;6549;53.128;8.182;2022-09-29T08:29:13;99956.59;;;7.66;100.00
12969;BME280;6549;53.128;8.182;2022-09-29T08:32:13;99964.06;;;7.80;100.00
12969;BME280;6549;53.128;8.182;2022-09-29T08:35:13;99967.59;;;7.84;100.00
12969;BME280;6549;53.128;8.182;2022-09-29T08:38:14;99972.72;;;7.96;100.00
12969;BME280;6549;53.128;8.182;2022-09-29T08:41:24;99968.44;;;8.06;100.00
12969;BME280;6549;53.128;8.182;2022-09-29T08:44:47;99970.41;;;8.12;100.00
12969;BME280;6549;53.128;8.182;2022-09-29T08:47:51;99968.09;;;8.22;100.00
12969;BME280;6549;53.128;8.182;2022-09-29T08:51:26;99974.00;;;8.41;100.00
12969;BME280;6549;53.128;8.182;2022-09-29T08:54:38;99977.16;;;8.65;100.00
12969;BME280;6549;53.128;8.182;2022-09-29T08:57:39;99984.19;;;8.73;100.00
12969;BME280;6549;53.128;8.182;2022-09-29T09:07:46;99993.19;;;9.01;100.00
12969;BME280;6549;53.128;8.182;2022-09-29T09:11:17;99985.75;;;9.09;100.00
12969;BME280;6549;53.128;8.182;2022-09-29T09:14:25;99993.16;;;9.26;100.00
12969;BME280;6549;53.128;8.182;2022-09-29T09:21:19;99992.56;;;9.88;100.00
12969;BME280;6549;53.128;8.182;2022-09-29T09:34:38;99995.59;;;12.50;100.00
12969;BME280;6549;53.128;8.182;2022-09-29T09:37:42;99990.97;;;13.17;100.00
12969;BME280;6549;53.128;8.182;2022-09-29T09:40:46;99989.84;;;13.14;100.00
12969;BME280;6549;53.128;8.182;2022-09-29T09:44:23;99991.19;;;12.79;100.00
12969;BME280;6549;53.128;8.182;2022-09-29T09:50:27;99991.13;;;12.59;100.00
12969;BME280;6549;53.128;8.182;2022-09-29T09:53:33;99993.91;;;12.83;100.00
12969;BME280;6549;53.128;8.182;2022-09-29T09:56:43;99996.00;;;12.98;100.00
12969;BME280;6549;53.128;8.182;2022-09-29T10:00:17;99997.75;;;13.12;100.00
12969;BME280;6549;53.128;8.182;2022-09-29T10:03:20;99998.16;;;13.11;100.00
12969;BME280;6549;53.128;8.182;2022-09-29T10:06:21;99993.66;;;13.20;100.00
12969;BME280;6549;53.128;8.182;2022-09-29T10:09:21;100002.41;;;13.38;100.00
12969;BME280;6549;53.128;8.182;2022-09-29T10:12:23;100004.53;;;13.50;100.00
12969;BME280;6549;53.128;8.182;2022-09-29T10:15:28;100000.81;;;13.80;100.00
12969;BME280;6549;53.128;8.182;2022-09-29T10:21:39;99999.78;;;14.10;100.00
12969;BME280;6549;53.128;8.182;2022-09-29T10:24:39;100002.44;;;14.33;100.00
12969;BME280;6549;53.128;8.182;2022-09-29T10:27:42;100003.28;;;14.50;100.00
12969;BME280;6549;53.128;8.182;2022-09-29T10:30:43;100001.22;;;14.54;100.00
12969;BME280;6549;53.128;8.182;2022-09-29T10:33:58;100000.34;;;14.57;100.00
12969;BME280;6549;53.128;8.182;2022-09-29T10:37:05;99999.31;;;14.51;100.00
12969;BME280;6549;53.128;8.182;2022-09-29T10:40:19;100006.06;;;14.66;100.00
12969;BME280;6549;53.128;8.182;2022-09-29T10:43:31;100012.44;;;14.79;100.00
12969;BME280;6549;53.128;8.182;2022-09-29T10:46:54;100018.84;;;14.93;100.00
12969;BME280;6549;53.128;8.182;2022-09-29T10:50:08;100018.00;;;14.96;100.00
12969;BME280;6549;53.128;8.182;2022-09-29T10:53:20;100022.63;;;14.82;100.00
12969;BME280;6549;53.128;8.182;2022-09-29T10:56:22;100017.47;;;14.84;100.00
12969;BME280;6549;53.128;8.182;2022-09-29T10:59:26;100023.84;;;15.14;100.00
12969;BME280;6549;53.128;8.182;2022-09-29T11:02:34;100021.75;;;15.34;100.00
12969;BME280;6549;53.128;8.182;2022-09-29T11:05:50;100021.22;;;15.39;100.00
12969;BME280;6549;53.128;8.182;2022-09-29T11:09:45;100024.50;;;15.50;100.00
12969;BME280;6549;53.128;8.182;2022-09-29T11:12:27;100029.28;;;15.79;100.00
12969;BME280;6549;53.128;8.182;2022-09-29T11:15:38;100028.13;;;15.92;100.00
12969;BME280;6549;53.128;8.182;2022-09-29T11:18:40;100021.28;;;16.09;100.00
12969;BME280;6549;53.128;8.182;2022-09-29T11:24:55;100027.19;;;16.37;100.00
12969;BME280;6549;53.128;8.182;2022-09-29T11:31:35;100033.00;;;16.55;100.00
12969;BME280;6549;53.128;8.182;2022-09-29T11:37:50;100025.53;;;16.39;100.00
12969;BME280;6549;53.128;8.182;2022-09-29T11:41:04;100027.41;;;16.42;100.00
12969;BME280;6549;53.128;8.182;2022-09-29T11:54:56;100025.69;;;16.07;100.00
12969;BME280;6549;53.128;8.182;2022-09-29T11:58:04;100035.69;;;16.04;100.00
12969;BME280;6549;53.128;8.182;2022-09-29T12:01:25;100040.94;;;15.86;100.00
12969;BME280;6549;53.128;8.182;2022-09-29T12:04:37;100036.53;;;15.89;100.00
12969;BME280;6549;53.128;8.182;2022-09-29T12:15:22;100044.44;;;16.15;100.00
12969;BME280;6549;53.128;8.182;2022-09-29T12:18:37;100044.34;;;16.06;100.00
12969;BME280;6549;53.128;8.182;2022-09-29T12:21:42;100038.84;;;15.90;100.00
12969;BME280;6549;53.128;8.182;2022-09-29T12:24:51;100044.09;;;16.01;100.00
12969;BME280;6549;53.128;8.182;2022-09-29T12:27:55;100033.69;;;16.05;100.00
12969;BME280;6549;53.128;8.182;2022-09-29T12:31:08;100037.88;;;15.97;100.00
12969;BME280;6549;53.128;8.182;2022-09-29T12:34:20;100036.78;;;16.07;100.00
12969;BME280;6549;53.128;8.182;2022-09-29T12:37:30;100042.94;;;16.27;100.00
12969;BME280;6549;53.128;8.182;2022-09-29T12:43:55;100047.28;;;16.53;100.00
12969;BME280;6549;53.128;8.182;2022-09-29T12:47:11;100040.66;;;16.64;100.00
12969;BME280;6549;53.128;8.182;2022-09-29T12:50:31;100044.66;;;16.63;100.00
12969;BME280;6549;53.128;8.182;2022-09-29T12:54:08;100047.41;;;16.37;100.00
12969;BME280;6549;53.128;8.182;2022-09-29T12:57:16;100040.69;;;16.22;100.00
12969;BME280;6549;53.128;8.182;2022-09-29T13:00:17;100044.13;;;16.13;100.00
12969;BME280;6549;53.128;8.182;2022-09-29T13:10:30;100042.94;;;15.86;100.00
12969;BME280;6549;53.128;8.182;2022-09-29T13:17:21;100052.50;;;15.68;100.00
12969;BME280;6549;53.128;8.182;2022-09-29T13:24:01;100058.34;;;15.87;100.00
12969;BME280;6549;53.128;8.182;2022-09-29T13:27:23;100056.19;;;16.07;100.00
12969;BME280;6549;53.128;8.182;2022-09-29T13:30:29;100055.31;;;16.10;100.00
12969;BME280;6549;53.128;8.182;2022-09-29T13:33:32;100052.16;;;16.24;100.00
12969;BME280;6549;53.128;8.182;2022-09-29T13:36:38;100045.38;;;16.38;100.00
12969;BME280;6549;53.128;8.182;2022-09-29T13:39:44;100043.91;;;16.21;100.00
12969;BME280;6549;53.128;8.182;2022-09-29T13:42:53;100050.63;;;16.07;100.00
12969;BME280;6549;53.128;8.182;2022-09-29T13:45:54;100060.63;;;16.04;100.00
12969;BME280;6549;53.128;8.182;2022-09-29T13:55:50;100052.81;;;15.87;100.00
12969;BME280;6549;53.128;8.182;2022-09-29T14:01:51;100055.38;;;15.65;100.00
12969;BME280;6549;53.128;8.182;2022-09-29T14:04:53;100054.19;;;15.66;100.00
12969;BME280;6549;53.128;8.182;2022-09-29T14:11:07;100048.72;;;15.62;100.00
12969;BME280;6549;53.128;8.182;2022-09-29T14:14:21;100053.72;;;15.67;100.00
12969;BME280;6549;53.128;8.182;2022-09-29T14:17:36;100065.56;;;15.68;100.00
12969;BME280;6549;53.128;8.182;2022-09-29T14:20:57;100059.72;;;15.66;100.00
12969;BME280;6549;53.128;8.182;2022-09-29T14:23:58;100058.25;;;15.61;100.00
12969;BME280;6549;53.128;8.182;2022-09-29T14:33:39;100067.78;;;15.28;100.00
12969;BME280;6549;53.128;8.182;2022-09-29T14:36:42;100073.41;;;15.24;100.00
12969;BME280;6549;53.128;8.182;2022-09-29T14:39:46;100079.13;;;15.17;100.00
12969;BME280;6549;53.128;8.182;2022-09-29T14:43:14;100077.91;;;14.86;100.00
12969;BME280;6549;53.128;8.182;2022-09-29T14:50:02;100094.81;;;14.36;100.00
12969;BME280;6549;53.128;8.182;2022-09-29T14:53:53;100098.31;;;13.97;100.00
12969;BME280;6549;53.128;8.182;2022-09-29T15:00:18;100099.66;;;13.46;100.00
12969;BME280;6549;53.128;8.182;2022-09-29T15:03:26;100101.50;;;13.29;100.00
12969;BME280;6549;53.128;8.182;2022-09-29T15:06:28;100103.63;;;13.22;100.00
12969;BME280;6549;53.128;8.182;2022-09-29T15:09:35;100111.50;;;13.20;100.00
12969;BME280;6549;53.128;8.182;2022-09-29T15:12:35;100115.84;;;13.21;100.00
12969;BME280;6549;53.128;8.182;2022-09-29T15:15:46;100127.81;;;13.11;100.00
12969;BME280;6549;53.128;8.182;2022-09-29T15:25:54;100148.53;;;12.65;100.00
12969;BME280;6549;53.128;8.182;2022-09-29T15:28:56;100150.28;;;12.52;100.00
12969;BME280;6549;53.128;8.182;2022-09-29T15:32:00;100145.06;;;12.27;100.00
12969;BME280;6549;53.128;8.182;2022-09-29T15:35:05;100154.66;;;12.15;100.00
12969;BME280;6549;53.128;8.182;2022-09-29T15:44:15;100153.66;;;11.95;100.00
12969;BME280;6549;53.128;8.182;2022-09-29T15:47:36;100145.50;;;11.88;100.00
12969;BME280;6549;53.128;8.182;2022-09-29T15:50:41;100145.19;;;11.79;100.00
12969;BME280;6549;53.128;8.182;2022-09-29T15:53:42;100145.69;;;11.67;100.00
12969;BME280;6549;53.128;8.182;2022-09-29T15:56:46;100147.25;;;11.68;100.00
12969;BME280;6549;53.128;8.182;2022-09-29T16:00:40;100157.47;;;11.64;100.00
12969;BME280;6549;53.128;8.182;2022-09-29T16:03:58;100162.97;;;11.67;100.00
12969;BME280;6549;53.128;8.182;2022-09-29T16:07:04;100156.25;;;11.68;100.00
12969;BME280;6549;53.128;8.182;2022-09-29T16:10:18;100157.34;;;11.82;100.00
12969;BME280;6549;53.128;8.182;2022-09-29T16:17:16;100163.19;;;11.87;100.00
12969;BME280;6549;53.128;8.182;2022-09-29T16:20:28;100165.16;;;11.90;100.00
12969;BME280;6549;53.128;8.182;2022-09-29T16:23:40;100171.44;;;11.87;100.00
12969;BME280;6549;53.128;8.182;2022-09-29T16:29:43;100180.50;;;11.88;100.00
12969;BME280;6549;53.128;8.182;2022-09-29T16:32:44;100195.78;;;11.92;100.00
12969;BME280;6549;53.128;8.182;2022-09-29T16:38:50;100194.22;;;11.91;100.00
12969;BME280;6549;53.128;8.182;2022-09-29T16:41:54;100201.75;;;11.87;100.00
12969;BME280;6549;53.128;8.182;2022-09-29T16:44:55;100200.25;;;11.79;100.00
12969;BME280;6549;53.128;8.182;2022-09-29T16:47:55;100203.81;;;11.76;100.00
12969;BME280;6549;53.128;8.182;2022-09-29T16:51:00;100210.13;;;11.73;100.00
12969;BME280;6549;53.128;8.182;2022-09-29T16:54:03;100213.28;;;11.68;100.00
12969;BME280;6549;53.128;8.182;2022-09-29T17:00:20;100211.75;;;11.60;100.00
12969;BME280;6549;53.128;8.182;2022-09-29T17:03:21;100211.06;;;11.49;100.00
12969;BME280;6549;53.128;8.182;2022-09-29T17:06:21;100206.00;;;11.44;100.00
12969;BME280;6549;53.128;8.182;2022-09-29T17:09:24;100211.94;;;11.39;100.00
12969;BME280;6549;53.128;8.182;2022-09-29T17:12:29;100207.25;;;11.36;100.00
12969;BME280;6549;53.128;8.182;2022-09-29T17:15:29;100212.78;;;11.32;100.00
12969;BME280;6549;53.128;8.182;2022-09-29T17:18:30;100211.25;;;11.27;100.00
12969;BME280;6549;53.128;8.182;2022-09-29T17:21:31;100223.06;;;11.21;100.00
12969;BME280;6549;53.128;8.182;2022-09-29T17:24:31;100225.03;;;11.17;100.00
12969;BME280;6549;53.128;8.182;2022-09-29T17:27:32;100224.66;;;11.11;100.00
12969;BME280;6549;53.128;8.182;2022-09-29T17:30:51;100228.63;;;11.10;100.00
12969;BME280;6549;53.128;8.182;2022-09-29T17:33:54;100226.28;;;11.05;100.00
12969;BME280;6549;53.128;8.182;2022-09-29T17:36:56;100225.13;;;11.03;100.00
12969;BME280;6549;53.128;8.182;2022-09-29T17:39:57;100233.38;;;10.99;100.00
12969;BME280;6549;53.128;8.182;2022-09-29T17:42:57;100233.81;;;10.94;100.00
12969;BME280;6549;53.128;8.182;2022-09-29T17:46:00;100238.56;;;10.87;100.00
12969;BME280;6549;53.128;8.182;2022-09-29T17:49:00;100240.56;;;10.79;100.00
12969;BME280;6549;53.128;8.182;2022-09-29T17:52:01;100237.81;;;10.75;100.00
12969;BME280;6549;53.128;8.182;2022-09-29T17:55:01;100240.19;;;10.70;100.00
12969;BME280;6549;53.128;8.182;2022-09-29T17:58:02;100248.84;;;10.65;100.00
12969;BME280;6549;53.128;8.182;2022-09-29T18:01:04;100252.41;;;10.62;100.00
12969;BME280;6549;53.128;8.182;2022-09-29T18:04:04;100263.41;;;10.55;100.00
12969;BME280;6549;53.128;8.182;2022-09-29T18:07:05;100259.50;;;10.49;100.00
12969;BME280;6549;53.128;8.182;2022-09-29T18:13:37;100268.56;;;10.35;100.00
12969;BME280;6549;53.128;8.182;2022-09-29T18:16:38;100265.03;;;10.31;100.00
12969;BME280;6549;53.128;8.182;2022-09-29T18:19:38;100266.22;;;10.26;100.00
12969;BME280;6549;53.128;8.182;2022-09-29T18:22:39;100268.19;;;10.26;100.00
12969;BME280;6549;53.128;8.182;2022-09-29T18:25:41;100268.97;;;10.19;100.00
12969;BME280;6549;53.128;8.182;2022-09-29T18:28:41;100272.88;;;10.11;100.00
12969;BME280;6549;53.128;8.182;2022-09-29T18:31:45;100261.47;;;10.09;100.00
12969;BME280;6549;53.128;8.182;2022-09-29T18:34:45;100270.91;;;10.08;100.00
12969;BME280;6549;53.128;8.182;2022-09-29T18:37:45;100268.94;;;10.05;100.00
12969;BME280;6549;53.128;8.182;2022-09-29T18:40:46;100270.91;;;10.01;100.00
12969;BME280;6549;53.128;8.182;2022-09-29T18:43:47;100270.13;;;9.93;100.00
12969;BME280;6549;53.128;8.182;2022-09-29T18:46:47;100268.16;;;9.87;100.00
12969;BME280;6549;53.128;8.182;2022-09-29T18:49:48;100275.63;;;9.83;100.00
12969;BME280;6549;53.128;8.182;2022-09-29T18:52:49;100279.16;;;9.83;100.00
12969;BME280;6549;53.128;8.182;2022-09-29T18:56:00;100282.31;;;9.82;100.00
12969;BME280;6549;53.128;8.182;2022-09-29T18:59:02;100289.34;;;9.79;100.00
12969;BME280;6549;53.128;8.182;2022-09-29T19:02:10;100281.91;;;9.76;100.00
12969;BME280;6549;53.128;8.182;2022-09-29T19:05:13;100287.75;;;9.61;100.00